createdAt,value
2022-07-31T00:01:48.065Z,17.70
2022-07-31T00:05:50.804Z,17.70
2022-07-31T00:09:55.480Z,17.50
2022-07-31T00:13:58.719Z,17.30
2022-07-31T00:18:02.988Z,17.10
2022-07-31T00:22:05.886Z,17.00
2022-07-31T00:26:08.682Z,17.00
2022-07-31T00:30:13.544Z,17.30
2022-07-31T00:34:17.687Z,17.30
2022-07-31T00:38:27.947Z,17.20
2022-07-31T00:42:30.808Z,17.10
2022-07-31T00:46:33.603Z,17.30
2022-07-31T00:50:39.323Z,17.50
2022-07-31T00:54:42.183Z,17.60
2022-07-31T00:58:44.959Z,17.60
2022-07-31T01:02:48.670Z,17.50
2022-07-31T01:06:53.156Z,17.40
2022-07-31T01:11:00.327Z,17.50
2022-07-31T01:15:07.690Z,17.50
2022-07-31T01:19:19.415Z,17.50
2022-07-31T01:23:51.071Z,17.60
2022-07-31T01:28:33.143Z,17.60
2022-07-31T01:32:39.095Z,17.60
2022-07-31T01:36:52.160Z,17.60
2022-07-31T01:40:59.300Z,17.70
2022-07-31T01:45:03.838Z,17.80
2022-07-31T01:49:09.737Z,17.60
2022-07-31T01:53:14.782Z,17.60
2022-07-31T01:57:19.181Z,17.50
2022-07-31T02:01:27.671Z,17.40
2022-07-31T02:05:33.522Z,17.40
2022-07-31T02:09:37.873Z,17.40
2022-07-31T02:14:04.051Z,17.60
2022-07-31T02:18:11.839Z,17.50
2022-07-31T02:22:39.110Z,17.40
2022-07-31T02:26:42.973Z,17.50
2022-07-31T02:30:47.602Z,17.40
2022-07-31T02:34:51.478Z,17.40
2022-07-31T02:38:58.087Z,17.40
2022-07-31T02:43:00.993Z,17.40
2022-07-31T02:47:06.767Z,17.40
2022-07-31T02:51:10.435Z,17.40
2022-07-31T02:55:14.914Z,17.30
2022-07-31T02:59:17.790Z,17.50
2022-07-31T03:03:33.373Z,17.60
2022-07-31T03:07:36.138Z,17.60
2022-07-31T03:11:40.623Z,17.40
2022-07-31T03:15:50.169Z,17.50
2022-07-31T03:19:54.698Z,17.30
2022-07-31T03:23:59.394Z,17.40
2022-07-31T03:28:03.578Z,17.40
2022-07-31T03:32:07.368Z,17.30
2022-07-31T03:36:11.139Z,17.50
2022-07-31T03:40:14.454Z,17.60
2022-07-31T03:44:19.346Z,17.30
2022-07-31T03:48:23.429Z,17.30
2022-07-31T03:52:26.463Z,17.30
2022-07-31T03:56:29.922Z,17.30
2022-07-31T04:00:34.715Z,17.30
2022-07-31T04:04:39.527Z,17.30
2022-07-31T04:08:42.302Z,17.20
2022-07-31T04:12:45.415Z,17.20
2022-07-31T04:16:50.379Z,17.10
2022-07-31T04:20:53.410Z,17.10
2022-07-31T04:24:56.262Z,17.20
2022-07-31T04:29:01.618Z,17.20
2022-07-31T04:33:06.062Z,17.30
2022-07-31T04:37:09.045Z,17.40
2022-07-31T04:41:12.101Z,17.40
2022-07-31T04:45:14.949Z,17.50
2022-07-31T04:49:19.234Z,17.70
2022-07-31T04:53:22.398Z,17.80
2022-07-31T04:57:25.954Z,17.90
2022-07-31T05:01:28.859Z,18.00
2022-07-31T05:05:33.155Z,18.00
2022-07-31T05:09:36.397Z,18.00
2022-07-31T05:13:40.959Z,18.10
2022-07-31T05:17:43.706Z,18.20
2022-07-31T05:22:14.135Z,18.50
2022-07-31T05:26:46.385Z,18.70
2022-07-31T05:30:49.187Z,19.00
2022-07-31T05:34:52.056Z,19.30
2022-07-31T05:38:56.299Z,19.70
2022-07-31T05:43:19.445Z,20.20
2022-07-31T05:47:44.744Z,20.30
2022-07-31T05:51:48.289Z,20.50
2022-07-31T05:55:52.538Z,20.70
2022-07-31T06:00:08.680Z,20.50
2022-07-31T06:04:14.889Z,20.10
2022-07-31T06:08:21.702Z,20.00
2022-07-31T06:12:27.183Z,20.60
2022-07-31T06:16:30.208Z,20.70
2022-07-31T06:20:33.400Z,20.60
2022-07-31T06:24:41.699Z,20.40
2022-07-31T06:28:49.250Z,20.60
2022-07-31T06:32:53.848Z,20.80
2022-07-31T06:36:57.030Z,20.80
2022-07-31T06:40:59.827Z,20.70
2022-07-31T06:45:21.494Z,20.90
2022-07-31T06:49:51.136Z,21.20
2022-07-31T06:53:54.176Z,21.20
2022-07-31T06:57:57.450Z,21.20
2022-07-31T07:02:01.912Z,21.10
2022-07-31T07:06:07.142Z,20.90
2022-07-31T07:10:10.435Z,21.00
2022-07-31T07:14:33.168Z,21.00
2022-07-31T07:18:39.063Z,21.10
2022-07-31T07:22:42.510Z,21.30
2022-07-31T07:26:48.472Z,21.40
2022-07-31T07:30:51.422Z,21.20
2022-07-31T07:34:59.984Z,21.30
2022-07-31T07:39:27.996Z,21.30
2022-07-31T07:43:32.260Z,21.90
2022-07-31T07:47:54.049Z,22.20
2022-07-31T07:52:00.544Z,23.20
2022-07-31T07:56:12.711Z,23.40
2022-07-31T08:00:34.321Z,23.70
2022-07-31T08:04:39.718Z,23.50
2022-07-31T08:08:44.027Z,23.20
2022-07-31T08:12:47.170Z,23.40
2022-07-31T08:17:02.163Z,24.70
2022-07-31T08:21:05.066Z,25.00
2022-07-31T08:25:14.221Z,25.70
2022-07-31T08:29:21.450Z,25.60
2022-07-31T08:33:34.242Z,25.00
2022-07-31T08:37:57.524Z,25.30
2022-07-31T08:42:05.892Z,25.80
2022-07-31T08:46:09.196Z,26.10
2022-07-31T08:50:16.204Z,26.80
2022-07-31T08:54:20.607Z,27.00
2022-07-31T08:58:24.916Z,27.20
2022-07-31T09:02:28.059Z,29.40
2022-07-31T09:06:59.947Z,30.70
2022-07-31T09:11:06.240Z,28.90
2022-07-31T09:15:23.735Z,29.80
2022-07-31T09:19:52.104Z,29.90
2022-07-31T09:24:04.837Z,29.60
2022-07-31T09:28:08.530Z,29.30
2022-07-31T09:32:14.886Z,29.40
2022-07-31T09:36:43.847Z,29.30
2022-07-31T09:41:55.961Z,30.10
2022-07-31T09:45:48.038Z,30.80
2022-07-31T09:49:58.370Z,31.00
2022-07-31T09:54:02.016Z,31.10
2022-07-31T09:58:37.385Z,31.80
2022-07-31T10:02:40.995Z,32.00
2022-07-31T10:06:48.057Z,32.80
2022-07-31T10:10:50.950Z,32.90
2022-07-31T10:15:07.843Z,32.70
2022-07-31T10:19:13.726Z,34.10
2022-07-31T10:23:33.476Z,33.90
2022-07-31T10:27:39.724Z,33.00
2022-07-31T10:31:47.411Z,32.40
2022-07-31T10:36:00.626Z,31.40
2022-07-31T10:40:41.522Z,30.80
2022-07-31T10:44:51.999Z,31.20
2022-07-31T10:48:57.999Z,31.30
2022-07-31T10:53:51.078Z,31.40
2022-07-31T10:58:10.222Z,32.40
2022-07-31T11:02:29.025Z,31.10
2022-07-31T11:06:48.581Z,32.70
2022-07-31T11:11:06.574Z,33.40
2022-07-31T11:15:32.806Z,33.40
2022-07-31T11:19:53.989Z,33.80
2022-07-31T11:24:03.285Z,34.80
2022-07-31T11:28:13.591Z,34.20
2022-07-31T11:32:25.177Z,34.80
2022-07-31T11:36:29.857Z,34.90
2022-07-31T11:40:32.679Z,34.80
2022-07-31T11:44:35.797Z,33.90
2022-07-31T11:48:45.226Z,34.30
2022-07-31T11:52:48.422Z,35.40
2022-07-31T11:56:53.418Z,34.90
2022-07-31T12:00:58.839Z,33.60
2022-07-31T12:05:04.759Z,31.90
2022-07-31T12:09:07.690Z,33.50
2022-07-31T12:13:32.237Z,32.30
2022-07-31T12:17:35.107Z,32.00
2022-07-31T12:21:40.496Z,32.10
2022-07-31T12:25:45.622Z,35.90
2022-07-31T12:29:48.499Z,37.10
2022-07-31T12:33:51.296Z,37.50
2022-07-31T12:37:55.439Z,35.40
2022-07-31T12:41:59.257Z,31.50
2022-07-31T12:46:05.210Z,34.00
2022-07-31T12:50:09.097Z,41.40
2022-07-31T12:54:14.035Z,44.20
2022-07-31T12:58:16.802Z,45.00
2022-07-31T13:02:19.581Z,40.70
2022-07-31T13:06:22.529Z,41.50
2022-07-31T13:10:31.846Z,40.80
2022-07-31T13:14:35.399Z,40.40
2022-07-31T13:18:39.079Z,40.30
2022-07-31T13:22:41.822Z,39.80
2022-07-31T13:26:45.925Z,39.30
2022-07-31T13:30:53.213Z,35.00
2022-07-31T13:35:26.546Z,33.70
2022-07-31T13:39:20.466Z,32.10
2022-07-31T13:43:24.562Z,36.10
2022-07-31T13:47:27.410Z,37.20
2022-07-31T13:51:50.113Z,35.00
2022-07-31T13:55:53.991Z,35.20
2022-07-31T13:59:58.091Z,34.60
2022-07-31T14:04:00.851Z,33.20
2022-07-31T14:08:33.429Z,31.70
2022-07-31T14:12:26.648Z,31.70
2022-07-31T14:16:30.792Z,32.80
2022-07-31T14:20:34.396Z,32.00
2022-07-31T14:24:37.941Z,31.50
2022-07-31T14:28:40.703Z,31.20
2022-07-31T14:32:44.832Z,32.10
2022-07-31T14:36:47.551Z,31.10
2022-07-31T14:40:50.396Z,30.60
2022-07-31T14:44:53.505Z,30.30
2022-07-31T14:48:58.430Z,30.30
2022-07-31T14:53:01.211Z,29.70
2022-07-31T14:57:03.991Z,29.50
2022-07-31T15:01:06.973Z,29.70
2022-07-31T15:06:41.019Z,29.90
2022-07-31T15:09:34.839Z,29.40
2022-07-31T15:13:39.064Z,29.40
2022-07-31T15:17:41.936Z,29.60
2022-07-31T15:22:15.772Z,29.50
2022-07-31T15:26:09.718Z,29.90
2022-07-31T15:30:13.509Z,30.00
2022-07-31T15:34:16.340Z,30.20
2022-07-31T15:38:20.607Z,30.20
2022-07-31T15:42:23.432Z,29.90
2022-07-31T15:46:26.237Z,28.90
2022-07-31T15:50:29.051Z,28.60
2022-07-31T15:54:33.206Z,28.70
2022-07-31T15:58:35.999Z,28.70
2022-07-31T16:02:39.127Z,28.90
2022-07-31T16:06:48.911Z,29.10
2022-07-31T16:10:55.173Z,29.20
2022-07-31T16:14:58.696Z,29.00
2022-07-31T16:19:01.436Z,28.80
2022-07-31T16:23:04.222Z,28.80
2022-07-31T16:27:08.563Z,28.80
2022-07-31T16:31:11.368Z,28.70
2022-07-31T16:35:34.527Z,28.50
2022-07-31T16:39:37.356Z,28.40
2022-07-31T16:43:50.508Z,28.10
2022-07-31T16:47:54.358Z,27.80
2022-07-31T16:51:57.149Z,27.60
2022-07-31T16:56:01.872Z,27.40
2022-07-31T17:00:08.039Z,27.20
2022-07-31T17:04:11.038Z,27.10
2022-07-31T17:08:13.874Z,27.00
2022-07-31T17:12:17.663Z,27.00
2022-07-31T17:16:21.799Z,26.90
2022-07-31T17:20:24.590Z,26.80
2022-07-31T17:24:29.063Z,26.60
2022-07-31T17:28:31.838Z,26.40
2022-07-31T17:32:35.997Z,26.30
2022-07-31T17:36:38.740Z,26.30
2022-07-31T17:40:43.826Z,26.20
2022-07-31T17:44:50.841Z,26.10
2022-07-31T17:48:58.992Z,26.10
2022-07-31T17:53:02.004Z,25.90
2022-07-31T17:57:05.364Z,25.80
2022-07-31T18:01:09.106Z,25.80
2022-07-31T18:05:13.456Z,25.70
2022-07-31T18:09:20.290Z,25.70
2022-07-31T18:13:23.134Z,25.60
2022-07-31T18:17:26.824Z,25.40
2022-07-31T18:21:30.971Z,25.40
2022-07-31T18:25:33.742Z,25.30
2022-07-31T18:29:36.552Z,25.30
2022-07-31T18:33:42.518Z,25.10
2022-07-31T18:37:46.667Z,25.10
2022-07-31T18:41:49.411Z,25.10
2022-07-31T18:45:52.163Z,25.00
2022-07-31T18:50:59.787Z,24.70
2022-07-31T18:54:19.895Z,24.60
2022-07-31T18:58:22.670Z,24.50
2022-07-31T19:02:25.445Z,24.30
2022-07-31T19:06:28.267Z,24.20
2022-07-31T19:10:32.775Z,24.10
2022-07-31T19:14:35.544Z,24.10
2022-07-31T19:18:39.817Z,24.00
2022-07-31T19:22:42.656Z,24.00
2022-07-31T19:26:46.784Z,23.90
2022-07-31T19:30:49.551Z,23.90
2022-07-31T19:34:52.528Z,23.90
2022-07-31T19:38:55.314Z,23.90
2022-07-31T19:42:59.729Z,23.80
2022-07-31T19:47:02.461Z,23.70
2022-07-31T19:51:05.727Z,23.40
2022-07-31T19:55:10.646Z,23.40
2022-07-31T19:59:14.806Z,23.30
2022-07-31T20:03:17.754Z,23.20
2022-07-31T20:07:20.605Z,23.00
2022-07-31T20:11:23.395Z,22.90
2022-07-31T20:15:27.514Z,22.80
2022-07-31T20:20:15.074Z,22.80
2022-07-31T20:24:13.207Z,22.80
2022-07-31T20:28:16.018Z,22.80
2022-07-31T20:32:21.678Z,22.70
2022-07-31T20:36:26.765Z,22.70
2022-07-31T20:40:29.742Z,22.80
2022-07-31T20:44:32.694Z,22.80
2022-07-31T20:48:38.788Z,22.70
2022-07-31T20:52:48.172Z,22.60
2022-07-31T20:56:51.335Z,22.60
2022-07-31T21:00:54.613Z,22.60
2022-07-31T21:04:58.903Z,22.50
2022-07-31T21:09:04.486Z,22.50
2022-07-31T21:13:07.446Z,22.50
2022-07-31T21:17:10.294Z,22.50
2022-07-31T21:21:14.417Z,22.40
2022-07-31T21:25:17.991Z,22.30
2022-07-31T21:29:21.038Z,22.30
2022-07-31T21:33:24.702Z,22.20
2022-07-31T21:37:35.267Z,22.00
2022-07-31T21:41:42.662Z,21.90
2022-07-31T21:45:55.020Z,21.80
2022-07-31T21:50:03.510Z,21.80
2022-07-31T21:54:07.747Z,21.80
2022-07-31T21:58:10.688Z,21.70
2022-07-31T22:02:13.846Z,21.60
2022-07-31T22:06:34.368Z,21.60
2022-07-31T22:10:38.313Z,21.60
2022-07-31T22:14:41.060Z,21.60
2022-07-31T22:18:44.370Z,21.50
2022-07-31T22:22:47.623Z,21.40
2022-07-31T22:27:08.779Z,21.30
2022-07-31T22:31:12.084Z,21.30
2022-07-31T22:35:15.563Z,21.50
2022-07-31T22:39:20.254Z,21.60
2022-07-31T22:44:12.300Z,21.70
2022-07-31T22:47:47.872Z,21.70
2022-07-31T22:51:50.726Z,21.70
2022-07-31T22:55:53.951Z,21.70
2022-07-31T22:59:58.531Z,21.70
2022-07-31T23:04:01.302Z,21.80
2022-07-31T23:08:04.803Z,21.80
2022-07-31T23:12:08.461Z,21.90
2022-07-31T23:16:12.811Z,21.90
2022-07-31T23:20:15.843Z,21.90
2022-07-31T23:24:18.675Z,22.00
2022-07-31T23:28:21.439Z,22.00
2022-07-31T23:32:25.674Z,22.00
2022-07-31T23:36:28.575Z,21.90
2022-07-31T23:40:31.630Z,21.90
2022-07-31T23:44:34.347Z,21.90
2022-07-31T23:48:44.343Z,21.70
2022-07-31T23:52:47.081Z,21.60
2022-07-31T23:56:49.850Z,21.60
